Scioto Mills, Illinois
Current Conditions -  °F | °C
As of 2:15 AM on Tuesday 27 Jan 2015 (Local Time) from KFEP Reporting Station
Haze Haze  
Wind Chill: 26°   Ceiling: 400
Heat Index: 26°   Visibility: 2.5mi
Dew Point: 25°   Wind: 0mph
Humidity: 96%   Direction: NA
Pressure: 29.97"   Gusts: NA
Location:  42.36°N, 89.67°W
Report Text: KFEP 270815Z AUTO 00000KT 2 1/2SM BR OVC004 M03/M04 A2997 RMK AO2 T10351040
Loading
Personal Weather Stations






























Interactive Weather Map New forecast layout! Learn more

10-Day Weather Forecast

Advertisements
Track Severe Weather on mobile